Time;durP1;ratioP1;P1;durP2;ratioP2;P2;SDS_P1;SDS_P2;PMS_P1;PMS_P2;Temp;Humidity;BMP_temperature;BMP_pressure;BME280_temperature;BME280_humidity;BME280_pressure;Samples;Min_cycle;Max_cycle;Signal;HPM_P1;HPM_P2
2020/12/09 00:00:27;;;;;;;0.30;0.10;;;;;;;;;;5034297;28;20043;-59
2020/12/09 00:02:56;;;;;;;0.73;0.20;;;;;;;;;;5036996;28;20026;-59
2020/12/09 00:05:23;;;;;;;2.15;0.20;;;;;;;;;;5037004;28;20500;-58
2020/12/09 00:07:49;;;;;;;1.40;0.22;;;;;;;;;;5036856;28;20049;-59
2020/12/09 00:10:15;;;;;;;0.43;0.20;;;;;;;;;;5036887;28;20033;-59
2020/12/09 00:12:41;;;;;;;0.28;0.10;;;;;;;;;;5036663;28;20041;-58
2020/12/09 00:15:09;;;;;;;1.98;0.22;;;;;;;;;;5037172;28;20029;-59
2020/12/09 00:17:35;;;;;;;0.73;0.20;;;;;;;;;;5036527;28;20060;-59
2020/12/09 00:20:02;;;;;;;0.30;0.20;;;;;;;;;;5036755;28;20036;-59
2020/12/09 00:22:33;;;;;;;0.30;0.20;;;;;;;;;;5036870;28;20492;-58
2020/12/09 00:24:59;;;;;;;0.97;0.10;;;;;;;;;;5036643;28;20028;-59
2020/12/09 00:27:25;;;;;;;0.60;0.20;;;;;;;;;;5036534;28;20514;-58
2020/12/09 00:29:53;;;;;;;0.50;0.30;;;;;;;;;;5036869;28;20056;-59
2020/12/09 00:32:29;;;;;;;0.40;0.20;;;;;;;;;;5036456;28;20108;-59
2020/12/09 00:35:06;;;;;;;0.20;0.10;;;;;;;;;;5036497;28;20037;-59
2020/12/09 00:37:33;;;;;;;0.30;0.20;;;;;;;;;;5036698;28;20022;-58
2020/12/09 00:39:59;;;;;;;0.80;0.20;;;;;;;;;;5036401;28;20061;-59
2020/12/09 00:42:30;;;;;;;0.60;0.20;;;;;;;;;;5036418;28;20021;-59
2020/12/09 00:44:57;;;;;;;0.35;0.20;;;;;;;;;;5036345;28;20111;-58
2020/12/09 00:47:23;;;;;;;0.60;0.20;;;;;;;;;;5036301;28;20017;-59
2020/12/09 00:50:03;;;;;;;0.43;0.20;;;;;;;;;;5036080;28;20129;-59
2020/12/09 00:52:31;;;;;;;3.60;0.15;;;;;;;;;;5036118;28;20033;-59
2020/12/09 00:54:57;;;;;;;0.30;0.20;;;;;;;;;;5018355;28;20037;-59
2020/12/09 00:57:26;;;;;;;0.28;0.10;;;;;;;;;;5036177;28;20029;-59
2020/12/09 00:59:52;;;;;;;0.70;0.30;;;;;;;;;;5036059;28;20060;-59
2020/12/09 01:02:21;;;;;;;0.73;0.35;;;;;;;;;;5036194;28;20379;-59
2020/12/09 01:04:49;;;;;;;1.63;0.30;;;;;;;;;;5035761;28;20103;-59
2020/12/09 01:07:24;;;;;;;0.55;0.30;;;;;;;;;;5036070;28;20029;-59
2020/12/09 01:09:50;;;;;;;0.70;0.30;;;;;;;;;;5035866;28;20017;-60
2020/12/09 01:12:16;;;;;;;1.42;0.40;;;;;;;;;;5035639;28;20022;-59
2020/12/09 01:14:45;;;;;;;0.95;0.30;;;;;;;;;;5035713;28;20040;-58
2020/12/09 01:17:11;;;;;;;0.57;0.20;;;;;;;;;;5035551;28;20050;-59
2020/12/09 01:19:40;;;;;;;0.50;0.20;;;;;;;;;;5035793;28;20374;-59
2020/12/09 01:22:06;;;;;;;0.60;0.30;;;;;;;;;;5035579;28;20029;-59
2020/12/09 01:24:33;;;;;;;0.98;0.30;;;;;;;;;;5035612;28;20021;-58
2020/12/09 01:26:59;;;;;;;1.63;0.28;;;;;;;;;;5035445;28;20036;-59
2020/12/09 01:29:25;;;;;;;0.82;0.30;;;;;;;;;;5035295;28;20135;-58
2020/12/09 01:32:08;;;;;;;0.85;0.30;;;;;;;;;;5035477;28;20029;-59
2020/12/09 01:34:36;;;;;;;0.93;0.43;;;;;;;;;;5035314;28;20041;-59
2020/12/09 01:37:05;;;;;;;2.03;0.28;;;;;;;;;;5035424;28;20032;-59
2020/12/09 01:39:33;;;;;;;0.40;0.30;;;;;;;;;;5035320;28;20029;-59
2020/12/09 01:41:59;;;;;;;1.38;0.20;;;;;;;;;;5035266;28;20409;-59
2020/12/09 01:44:25;;;;;;;0.75;0.10;;;;;;;;;;5035183;28;20061;-58
2020/12/09 01:47:00;;;;;;;0.20;0.10;;;;;;;;;;5035169;28;20028;-59
2020/12/09 01:49:26;;;;;;;2.65;0.13;;;;;;;;;;5035238;28;20390;-59
2020/12/09 01:51:52;;;;;;;0.70;0.20;;;;;;;;;;5035014;28;20049;-59
2020/12/09 01:54:18;;;;;;;0.70;0.20;;;;;;;;;;5035120;28;20505;-59
2020/12/09 01:56:47;;;;;;;0.73;0.10;;;;;;;;;;5034985;28;20040;-59
2020/12/09 01:59:16;;;;;;;0.20;0.10;;;;;;;;;;5034775;28;20033;-59
2020/12/09 02:01:42;;;;;;;0.30;0.10;;;;;;;;;;5035117;28;20476;-58
2020/12/09 02:04:08;;;;;;;1.75;0.20;;;;;;;;;;5034593;28;20030;-58
2020/12/09 02:06:34;;;;;;;0.57;0.20;;;;;;;;;;5035122;28;20112;-58
2020/12/09 02:09:00;;;;;;;0.50;0.20;;;;;;;;;;5034837;28;20018;-59
2020/12/09 02:11:26;;;;;;;0.35;0.20;;;;;;;;;;5034632;28;20113;-58
2020/12/09 02:13:52;;;;;;;0.45;0.15;;;;;;;;;;5034711;28;20069;-58
2020/12/09 02:16:19;;;;;;;1.38;0.20;;;;;;;;;;5034318;28;20108;-58
2020/12/09 02:18:45;;;;;;;0.43;0.25;;;;;;;;;;5034732;28;20041;-58
2020/12/09 02:21:11;;;;;;;0.35;0.15;;;;;;;;;;5034474;28;20033;-58
2020/12/09 02:23:40;;;;;;;0.75;0.28;;;;;;;;;;5033759;28;20026;-58
2020/12/09 02:26:06;;;;;;;0.45;0.20;;;;;;;;;;5034413;28;20103;-58
2020/12/09 02:28:32;;;;;;;0.35;0.20;;;;;;;;;;5034255;28;20030;-58
2020/12/09 02:30:59;;;;;;;1.65;0.60;;;;;;;;;;5034087;28;20033;-58
2020/12/09 02:33:27;;;;;;;0.63;0.30;;;;;;;;;;5034225;28;20374;-58
2020/12/09 02:35:53;;;;;;;1.75;0.20;;;;;;;;;;5034160;28;20040;-58
2020/12/09 02:38:19;;;;;;;4.88;0.30;;;;;;;;;;5034322;28;20052;-58
2020/12/09 02:40:46;;;;;;;0.30;0.15;;;;;;;;;;5034281;28;20021;-58
2020/12/09 02:43:12;;;;;;;0.20;0.10;;;;;;;;;;5034048;28;20030;-57
2020/12/09 02:45:37;;;;;;;0.40;0.20;;;6.70;99.90;;;;;;5033915;28;20064;-58
2020/12/09 02:48:03;;;;;;;0.40;0.20;;;6.60;99.90;;;;;;5034037;28;20052;-58
2020/12/09 02:50:29;;;;;;;0.38;0.10;;;6.70;99.90;;;;;;5033832;28;20057;-58
2020/12/09 02:52:55;;;;;;;0.68;0.20;;;6.60;99.90;;;;;;5033851;28;20026;-58
2020/12/09 02:55:21;;;;;;;0.10;0.10;;;6.60;99.90;;;;;;5033856;28;20029;-58
2020/12/09 02:57:47;;;;;;;0.17;0.10;;;6.60;99.90;;;;;;5034049;28;20098;-58
2020/12/09 03:00:13;;;;;;;0.40;0.10;;;6.60;99.90;;;;;;5033910;28;20483;-58
2020/12/09 03:02:40;;;;;;;0.40;0.10;;;6.60;99.90;;;;;;5033960;28;20029;-57
2020/12/09 03:05:06;;;;;;;1.42;0.10;;;6.60;99.90;;;;;;5033512;28;20032;-58
2020/12/09 03:07:31;;;;;;;0.40;0.10;;;6.60;99.90;;;;;;5033978;28;20025;-57
2020/12/09 03:09:57;;;;;;;0.10;0.10;;;6.70;99.90;;;;;;5033428;28;20029;-58
2020/12/09 03:12:23;;;;;;;0.20;0.10;;;6.60;99.90;;;;;;5033535;28;20025;-57
2020/12/09 03:14:49;;;;;;;0.10;0.10;;;6.60;99.90;;;;;;5033604;28;20069;-58
2020/12/09 03:17:15;;;;;;;0.30;0.10;;;6.60;99.90;;;;;;5033510;28;20473;-57
2020/12/09 03:19:40;;;;;;;0.13;0.10;;;6.70;99.90;;;;;;5033467;28;20025;-58
2020/12/09 03:22:06;;;;;;;0.52;0.10;;;6.70;99.90;;;;;;5033394;28;20022;-58
2020/12/09 03:24:32;;;;;;;0.40;0.20;;;6.70;99.90;;;;;;5033709;28;20117;-58
2020/12/09 03:26:58;;;;;;;1.10;0.20;;;6.70;99.90;;;;;;5033367;28;20486;-58
2020/12/09 03:29:24;;;;;;;0.63;0.17;;;6.70;99.90;;;;;;5033173;28;20427;-58
2020/12/09 03:31:50;;;;;;;0.50;0.20;;;6.70;99.90;;;;;;5033561;28;20023;-58
2020/12/09 03:34:15;;;;;;;0.50;0.30;;;6.70;99.90;;;;;;5033205;28;20041;-58
2020/12/09 03:36:41;;;;;;;0.40;0.20;;;6.80;99.90;;;;;;5032566;28;20365;-58
2020/12/09 03:39:07;;;;;;;0.82;0.30;;;6.70;99.90;;;;;;5033178;28;20078;-58
2020/12/09 03:41:33;;;;;;;0.82;0.32;;;6.80;99.90;;;;;;5033011;28;20056;-57
2020/12/09 03:43:59;;;;;;;0.63;0.32;;;6.70;99.90;;;;;;5033370;28;20040;-57
2020/12/09 03:46:24;;;;;;;0.77;0.35;;;6.70;99.90;;;;;;5033252;28;20018;-57
2020/12/09 03:48:50;;;;;;;1.83;0.30;;;6.80;99.90;;;;;;5033278;28;20171;-58
2020/12/09 03:51:16;;;;;;;0.90;0.40;;;6.80;99.90;;;;;;5033264;28;20025;-57
2020/12/09 03:53:42;;;;;;;0.75;0.40;;;6.70;99.90;;;;;;5032979;28;20493;-57
2020/12/09 03:56:08;;;;;;;1.42;0.50;;;6.70;99.90;;;;;;5032858;28;20045;-57
2020/12/09 03:58:33;;;;;;;1.30;0.52;;;6.80;99.90;;;;;;5033187;28;20104;-57
2020/12/09 04:00:59;;;;;;;0.95;0.45;;;6.80;99.90;;;;;;5032872;28;20072;-57
2020/12/09 04:03:25;;;;;;;0.60;0.40;;;6.80;99.90;;;;;;5032951;28;20107;-58
2020/12/09 04:05:51;;;;;;;0.90;0.50;;;6.80;99.90;;;;;;5032741;28;20022;-57
2020/12/09 04:08:17;;;;;;;0.63;0.45;;;6.80;99.90;;;;;;5032903;28;20108;-58
2020/12/09 04:10:43;;;;;;;1.00;0.40;;;6.80;99.90;;;;;;5032782;28;20030;-57
2020/12/09 04:13:08;;;;;;;0.93;0.32;;;6.80;99.90;;;;;;5032794;28;20018;-57
2020/12/09 04:15:34;;;;;;;1.50;0.80;;;6.80;99.90;;;;;;5032602;28;20099;-58
2020/12/09 04:18:00;;;;;;;0.70;0.30;;;6.80;99.90;;;;;;5032732;28;20069;-57
2020/12/09 04:20:26;;;;;;;1.60;0.50;;;6.80;99.90;;;;;;5033123;28;20057;-57
2020/12/09 04:22:52;;;;;;;1.00;0.40;;;6.80;99.90;;;;;;5032663;28;20433;-58
2020/12/09 04:25:17;;;;;;;0.68;0.40;;;6.80;99.90;;;;;;5032669;28;20040;-58
2020/12/09 04:27:43;;;;;;;0.73;0.30;;;6.80;99.90;;;;;;5032654;28;20123;-58
2020/12/09 04:30:09;;;;;;;0.70;0.47;;;6.90;99.90;;;;;;5032813;28;20022;-57
2020/12/09 04:32:35;;;;;;;0.82;0.50;;;6.80;99.90;;;;;;5032532;28;20025;-58
2020/12/09 04:35:01;;;;;;;0.73;0.40;;;6.80;99.90;;;;;;5032599;28;20030;-58
2020/12/09 04:37:27;;;;;;;0.70;0.45;;;6.80;99.90;;;;;;5033001;28;20034;-58
2020/12/09 04:39:57;;;;;;;1.15;0.40;;;6.80;99.90;;;;;;5032842;28;20022;-58
2020/12/09 04:42:25;;;;;;;0.70;0.35;;;6.80;99.90;;;;;;5032843;28;20104;-57
2020/12/09 04:44:52;;;;;;;0.95;0.52;;;6.80;99.90;;;;;;5032654;28;20033;-57
2020/12/09 04:47:43;;;;;;;1.05;0.60;;;6.80;99.90;;;;;;5034854;28;20052;-57
2020/12/09 04:50:11;;;;;;;1.48;0.50;;;6.80;99.90;;;;;;5012382;28;20187;-58
2020/12/09 04:53:01;;;;;;;0.93;0.60;;;6.90;99.90;;;;;;5036123;28;20021;-57
2020/12/09 04:55:32;;;;;;;0.85;0.40;;;6.90;99.90;;;;;;5016816;28;20061;-58
2020/12/09 04:58:10;;;;;;;0.90;0.50;;;6.90;99.90;;;;;;5016106;28;20479;-59
2020/12/09 05:00:40;;;;;;;0.80;0.50;;;6.90;99.90;;;;;;5016525;28;20072;-61
2020/12/09 05:03:15;;;;;;;1.15;0.60;;;6.90;99.90;;;;;;5016338;28;20499;-58
2020/12/09 05:05:41;;;;;;;0.82;0.50;;;6.90;99.90;;;;;;5016430;28;20049;-58
2020/12/09 05:08:19;;;;;;;0.90;0.57;;;6.90;99.90;;;;;;5016357;28;20029;-58
2020/12/09 05:10:52;;;;;;;0.77;0.45;;;6.90;99.90;;;;;;5016186;28;20040;-58
2020/12/09 05:13:24;;;;;;;1.20;0.80;;;6.90;99.90;;;;;;5016254;28;20022;-59
2020/12/09 05:15:55;;;;;;;2.15;1.20;;;6.90;99.90;;;;;;5015983;28;20060;-58
2020/12/09 05:18:41;;;;;;;2.40;1.10;;;6.90;99.90;;;;;;5033181;28;20049;-58
2020/12/09 05:21:12;;;;;;;2.03;1.23;;;6.90;99.90;;;;;;5036062;28;20466;-58
2020/12/09 05:23:58;;;;;;;1.20;0.70;;;6.90;99.90;;;;;;5035876;28;20041;-59
2020/12/09 05:26:29;;;;;;;2.90;1.30;;;6.90;99.90;;;;;;5035560;28;20029;-58
2020/12/09 05:29:13;;;;;;;2.05;1.15;;;6.90;99.90;;;;;;5035830;28;20025;-59
2020/12/09 05:31:42;;;;;;;1.13;0.70;;;6.90;99.90;;;;;;5035465;28;20025;-60
2020/12/09 05:34:22;;;;;;;1.90;0.88;;;6.90;99.90;;;;;;5035324;28;20095;-68
2020/12/09 05:36:54;;;;;;;1.10;0.70;;;6.90;99.90;;;;;;5035476;28;20036;-61
2020/12/09 05:39:20;;;;;;;0.90;0.60;;;6.90;99.90;;;;;;5035641;28;20044;-61
2020/12/09 05:41:46;;;;;;;1.00;0.65;;;6.90;99.90;;;;;;5035175;28;20025;-61
2020/12/09 05:44:12;;;;;;;2.40;0.80;;;6.90;99.90;;;;;;5035233;28;20028;-61
2020/12/09 05:47:03;;;;;;;0.98;0.55;;;7.00;99.90;;;;;;5035149;28;20045;-61
2020/12/09 05:49:33;;;;;;;1.25;0.75;;;6.90;99.90;;;;;;5035149;28;20038;-61
2020/12/09 05:52:11;;;;;;;1.30;0.70;;;7.00;99.90;;;;;;5034933;28;20537;-61
2020/12/09 05:54:40;;;;;;;1.35;0.68;;;7.00;99.90;;;;;;5035289;28;20065;-61
2020/12/09 05:57:08;;;;;;;1.73;0.90;;;7.00;99.90;;;;;;5034970;28;20018;-59
2020/12/09 05:59:38;;;;;;;3.17;1.00;;;7.00;99.90;;;;;;5016368;28;20501;-59
2020/12/09 06:02:08;;;;;;;1.45;0.70;;;7.10;99.90;;;;;;5034967;28;20013;-58
2020/12/09 06:04:46;;;;;;;1.85;1.08;;;7.10;99.90;;;;;;5035128;28;20052;-59
2020/12/09 06:07:13;;;;;;;2.03;0.77;;;7.10;99.90;;;;;;5034865;28;20029;-61
2020/12/09 06:09:39;;;;;;;3.13;0.98;;;7.10;99.90;;;;;;5034755;28;20025;-58
2020/12/09 06:12:06;;;;;;;6.95;5.18;;;7.10;99.90;;;;;;5034697;28;20575;-58
2020/12/09 06:14:32;;;;;;;2.67;1.63;;;7.10;99.90;;;;;;5034536;28;20128;-59
2020/12/09 06:16:59;;;;;;;3.72;1.70;;;7.10;99.90;;;;;;5034616;28;20049;-58
2020/12/09 06:19:25;;;;;;;3.17;1.45;;;7.10;99.90;;;;;;5034716;28;20029;-58
2020/12/09 06:21:57;;;;;;;4.55;3.40;;;7.10;99.90;;;;;;5034406;28;20552;-59
2020/12/09 06:24:27;;;;;;;1.48;0.68;;;7.10;99.90;;;;;;5034281;28;20155;-59
2020/12/09 06:26:53;;;;;;;1.70;0.82;;;7.00;99.90;;;;;;5034603;28;20083;-58
2020/12/09 06:29:23;;;;;;;3.72;2.17;;;7.10;99.90;;;;;;5034631;28;20496;-58
2020/12/09 06:31:59;;;;;;;4.28;2.28;;;7.10;99.90;;;;;;5034308;28;20621;-59
2020/12/09 06:34:25;;;;;;;14.65;3.17;;;7.10;99.90;;;;;;5034438;28;20083;-59
2020/12/09 06:37:20;;;;;;;5.07;1.92;;;7.10;99.90;;;;;;5034372;28;20442;-59
2020/12/09 06:40:07;;;;;;;2.78;1.67;;;7.10;99.90;;;;;;5016994;28;20033;-59
2020/12/09 06:42:33;;;;;;;1.35;0.73;;;7.20;99.90;;;;;;5033993;28;20032;-59
2020/12/09 06:45:00;;;;;;;3.17;1.23;;;7.20;99.90;;;;;;5033695;28;20029;-58
2020/12/09 06:47:26;;;;;;;2.80;1.52;;;7.20;99.90;;;;;;5033836;28;20072;-58
2020/12/09 06:49:52;;;;;;;3.75;1.17;;;7.20;99.90;;;;;;5033882;28;20032;-58
2020/12/09 06:52:32;;;;;;;1.85;0.90;;;7.20;99.90;;;;;;5033818;28;20037;-58
2020/12/09 06:54:59;;;;;;;2.05;0.98;;;7.20;99.90;;;;;;5033754;28;20339;-58
2020/12/09 06:57:35;;;;;;;1.88;0.88;;;7.20;99.90;;;;;;5033788;28;20036;-58
2020/12/09 07:00:11;;;;;;;1.45;0.60;;;7.20;99.90;;;;;;5033518;28;20506;-58
2020/12/09 07:02:40;;;;;;;1.25;0.60;;;7.20;99.90;;;;;;5033580;28;20065;-58
2020/12/09 07:05:39;;;;;;;2.58;0.40;;;7.20;99.90;;;;;;5033947;28;20035;-59
2020/12/09 07:08:05;;;;;;;4.03;0.57;;;7.20;99.90;;;;;;4989667;28;20037;-59
2020/12/09 07:10:33;;;;;;;1.15;0.57;;;7.30;99.90;;;;;;5033387;28;20024;-58
2020/12/09 07:13:04;;;;;;;1.63;0.70;;;7.20;99.90;;;;;;5033489;28;20043;-59
2020/12/09 07:15:30;;;;;;;;;;;7.30;99.90;;;;;;5033877;28;20049;-59
2020/12/09 07:17:56;;;;;;;1.85;0.60;;;7.30;99.90;;;;;;5033373;28;19924;-58
2020/12/09 07:20:23;;;;;;;1.88;0.82;;;7.20;99.90;;;;;;5033430;28;20017;-59
2020/12/09 07:22:49;;;;;;;0.95;0.40;;;7.20;99.90;;;;;;5033279;28;20029;-59
2020/12/09 07:25:15;;;;;;;2.78;0.70;;;7.20;99.90;;;;;;5033233;28;20026;-58
2020/12/09 07:27:42;;;;;;;3.20;0.90;;;7.20;99.90;;;;;;5033650;28;20026;-59
2020/12/09 07:30:10;;;;;;;1.48;0.60;;;7.20;99.90;;;;;;5033304;28;20156;-60
2020/12/09 07:32:36;;;;;;;3.47;0.95;;;7.20;99.90;;;;;;5033490;28;20052;-61
2020/12/09 07:35:08;;;;;;;3.60;1.88;;;7.20;99.90;;;;;;5033103;28;20043;-60
2020/12/09 07:37:37;;;;;;;2.88;1.00;;;7.30;99.90;;;;;;5033350;28;20029;-60
2020/12/09 07:40:10;;;;;;;1.38;0.60;;;;;;;;;;5033308;28;20466;-60
2020/12/09 07:42:37;;;;;;;2.03;0.80;;;;;;;;;;5033071;28;20116;-61
2020/12/09 07:45:03;;;;;;;1.42;0.60;;;;;;;;;;5033168;28;20028;-60
2020/12/09 07:47:30;;;;;;;2.13;1.13;;;;;;;;;;5033316;28;20037;-60
2020/12/09 07:50:03;;;;;;;4.28;1.58;;;;;;;;;;5032417;28;20021;-59
2020/12/09 07:52:29;;;;;;;1.60;0.98;;;;;;;;;;5032877;28;20041;-59
2020/12/09 07:54:56;;;;;;;2.25;1.30;;;;;;;;;;5033123;28;20041;-59
2020/12/09 07:57:23;;;;;;;1.83;1.00;;;;;;;;;;5031959;28;20097;-60
2020/12/09 07:59:54;;;;;;;1.52;1.33;;;;;;;;;;5032953;28;20621;-60
2020/12/09 08:02:24;;;;;;;3.53;1.08;;;;;;;;;;5033100;28;20030;-60
2020/12/09 08:05:06;;;;;;;2.78;1.48;;;;;;;;;;5033062;28;20029;-60
2020/12/09 08:07:32;;;;;;;3.80;1.48;;;;;;;;;;5032970;28;20155;-60
2020/12/09 08:10:09;;;;;;;2.38;1.10;;;;;;;;;;5032811;28;20109;-59
2020/12/09 08:12:36;;;;;;;3.03;0.93;;;;;;;;;;5032859;28;20034;-60
2020/12/09 08:15:03;;;;;;;3.22;0.70;;;;;;;;;;5033051;28;20033;-60
2020/12/09 08:17:30;;;;;;;2.58;1.17;;;;;;;;;;5032601;28;20049;-59
2020/12/09 08:20:04;;;;;;;3.25;1.10;;;;;;;;;;5032805;28;20032;-60
2020/12/09 08:22:30;;;;;;;3.88;1.60;;;;;;;;;;5035699;28;20025;-61
2020/12/09 08:25:06;;;;;;;1.50;0.90;;;;;;;;;;5036775;28;20394;-60
2020/12/09 08:27:39;;;;;;;2.47;1.10;;;;;;;;;;5036644;28;20021;-61
2020/12/09 08:30:10;;;;;;;2.03;1.30;;;;;;;;;;5036529;28;20028;-61
2020/12/09 08:32:55;;;;;;;3.37;2.33;;;;;;;;;;5036647;28;20037;-60
2020/12/09 08:35:22;;;;;;;2.90;1.00;;;;;;;;;;5036466;28;20037;-60
2020/12/09 08:37:48;;;;;;;2.38;0.68;;;;;;;;;;5036709;28;20227;-60
2020/12/09 08:40:14;;;;;;;3.25;1.00;;;;;;;;;;5036347;28;20390;-60
2020/12/09 08:42:50;;;;;;;3.33;0.60;;;;;;;;;;5036674;28;20036;-61
2020/12/09 08:45:16;;;;;;;2.17;0.90;;;;;;;;;;5036226;28;20017;-60
2020/12/09 08:47:42;;;;;;;1.75;0.77;;;;;;;;;;5036220;28;20053;-60
2020/12/09 08:50:08;;;;;;;1.42;0.68;;;;;;;;;;5036416;28;20061;-60
2020/12/09 08:52:34;;;;;;;2.00;0.77;;;;;;;;;;5035550;28;20029;-60
2020/12/09 08:55:02;;;;;;;2.17;1.08;;;;;;;;;;5035869;28;20037;-58
2020/12/09 08:57:28;;;;;;;0.80;0.32;;;;;;;;;;5036179;28;20352;-60
2020/12/09 08:59:54;;;;;;;0.63;0.32;;;;;;;;;;5036183;28;20350;-61
2020/12/09 09:02:20;;;;;;;0.65;0.30;;;;;;;;;;5036056;28;20017;-59
2020/12/09 09:04:46;;;;;;;0.90;0.30;;;;;;;;;;5036213;28;20033;-60
2020/12/09 09:07:12;;;;;;;3.78;1.10;;;;;;;;;;5035863;28;20025;-60
2020/12/09 09:09:38;;;;;;;0.82;0.30;;;;;;;;;;5035876;28;20069;-60
2020/12/09 09:12:04;;;;;;;1.17;0.43;;;;;;;;;;5035869;28;20052;-59
2020/12/09 09:14:31;;;;;;;1.67;0.55;;;;;;;;;;5035932;28;20037;-60
2020/12/09 09:16:58;;;;;;;3.08;0.50;;;;;;;;;;5035960;28;20426;-59
2020/12/09 09:19:24;;;;;;;1.13;0.52;;;;;;;;;;5035759;28;20029;-58
2020/12/09 09:21:50;;;;;;;1.33;0.50;;;;;;;;;;5035659;28;20060;-59
2020/12/09 09:24:16;;;;;;;2.42;1.30;;;;;;;;;;5035552;28;20056;-59
2020/12/09 09:26:42;;;;;;;1.10;0.52;;;;;;;;;;5053746;28;20079;-58
2020/12/09 09:29:09;;;;;;;1.05;0.40;;;;;;;;;;5052454;28;20029;-59
2020/12/09 09:31:35;;;;;;;1.00;0.50;;;;;;;;;;5055342;28;20036;-57
2020/12/09 09:34:01;;;;;;;0.60;0.20;;;;;;;;;;5048025;28;20033;-57
2020/12/09 09:36:31;;;;;;;0.32;0.10;;;;;;;;;;5044245;28;20078;-57
2020/12/09 09:38:57;;;;;;;0.57;0.30;;;;;;;;;;5039399;28;20021;-56
2020/12/09 09:41:23;;;;;;;3.55;2.08;;;;;;;;;;5052144;28;20113;-58
2020/12/09 09:43:49;;;;;;;0.60;0.30;;;;;;;;;;5055107;28;20135;-59
2020/12/09 09:46:16;;;;;;;1.30;0.30;;;;;;;;;;5050442;28;20469;-58
2020/12/09 09:48:42;;;;;;;1.55;0.30;;;;;;;;;;5033019;28;20028;-58
2020/12/09 09:51:08;;;;;;;1.23;0.40;;;;;;;;;;5033328;28;20021;-57
2020/12/09 09:53:34;;;;;;;1.10;0.40;;;;;;;;;;5019353;28;20394;-58
2020/12/09 09:56:01;;;;;;;9.32;5.70;;;;;;;;;;5013145;28;20489;-59
2020/12/09 09:58:27;;;;;;;4.55;2.50;;;;;;;;;;5045615;28;20029;-58
2020/12/09 10:00:53;;;;;;;4.05;2.33;;;;;;;;;;5052482;28;20025;-58
2020/12/09 10:03:19;;;;;;;4.63;2.42;;;;;;;;;;5028315;28;20111;-58
2020/12/09 10:05:46;;;;;;;1.73;1.05;;;;;;;;;;5021585;28;20025;-58
2020/12/09 10:08:12;;;;;;;4.30;2.25;;;;;;;;;;5017790;28;20379;-59
2020/12/09 10:10:38;;;;;;;1.83;1.15;;;;;;;;;;5013473;28;20487;-59
2020/12/09 10:13:04;;;;;;;2.75;0.85;;;;;;;;;;5015923;28;20025;-57
2020/12/09 10:15:30;;;;;;;8.93;3.63;;;;;;;;;;5034882;28;20043;-58
2020/12/09 10:17:56;;;;;;;4.75;1.83;;;;;;;;;;5046918;28;20049;-59
2020/12/09 10:20:23;;;;;;;0.75;0.32;;;;;;;;;;5052662;28;20025;-59
2020/12/09 10:22:49;;;;;;;1.77;0.90;;;;;;;;;;5052604;28;20056;-59
2020/12/09 10:25:15;;;;;;;0.77;0.40;;;;;;;;;;5052429;28;20021;-59
2020/12/09 10:27:41;;;;;;;2.13;0.88;;;;;;;;;;5040005;28;20025;-59
2020/12/09 10:30:08;;;;;;;0.65;0.38;;;;;;;;;;5032467;28;20053;-59
2020/12/09 10:32:35;;;;;;;12.18;1.48;;;;;;;;;;5032621;28;20434;-59
2020/12/09 10:35:01;;;;;;;3.70;2.13;;;;;;;;;;5032276;28;20112;-59
2020/12/09 10:37:27;;;;;;;1.13;0.40;;;;;;;;;;5032723;28;20497;-57
2020/12/09 10:39:53;;;;;;;3.58;0.90;;;;;;;;;;5042485;28;20485;-58
2020/12/09 10:42:22;;;;;;;0.90;0.43;;;;;;;;;;5048397;28;20032;-59
2020/12/09 10:44:49;;;;;;;1.98;0.50;;;;;;;;;;5034764;28;20033;-59
2020/12/09 10:47:15;;;;;;;2.63;1.10;;;;;;;;;;5032698;28;20528;-60
2020/12/09 10:49:44;;;;;;;7.85;2.85;;;;;;;;;;5032671;28;20430;-59
2020/12/09 10:52:11;;;;;;;4.55;2.40;;;;;;;;;;5031947;28;20029;-59
2020/12/09 10:54:37;;;;;;;2.38;1.23;;;;;;;;;;5033192;28;20557;-58
2020/12/09 10:57:04;;;;;;;1.67;0.77;;;;;;;;;;5037056;28;20097;-58
2020/12/09 10:59:31;;;;;;;2.72;1.40;;;;;;;;;;5032627;28;20073;-58
2020/12/09 11:01:57;;;;;;;1.77;0.75;;;;;;;;;;5014466;28;20371;-59
2020/12/09 11:04:23;;;;;;;4.28;1.63;;;;;;;;;;5031673;28;20367;-59
2020/12/09 11:06:49;;;;;;;2.45;1.40;;;;;;;;;;5033872;28;20072;-59
2020/12/09 11:09:16;;;;;;;2.75;1.20;;;;;;;;;;5051475;28;20021;-59
2020/12/09 11:11:45;;;;;;;4.25;2.30;;;;;;;;;;5043448;28;20379;-59
2020/12/09 11:14:13;;;;;;;5.63;2.40;;;;;;;;;;5031467;28;20025;-59
2020/12/09 11:16:39;;;;;;;5.63;3.60;;;;;;;;;;5028072;28;20482;-59
2020/12/09 11:19:05;;;;;;;6.78;4.03;;;;;;;;;;5012272;28;20032;-58
2020/12/09 11:21:31;;;;;;;7.28;4.30;;;;;;;;;;5012155;28;20034;-58
2020/12/09 11:23:59;;;;;;;12.57;5.97;;;;;;;;;;5011688;28;20064;-58
2020/12/09 11:26:27;;;;;;;16.42;7.88;;;;;;;;;;5011339;28;20033;-58
2020/12/09 11:28:53;;;;;;;3.40;1.45;;;;;;;;;;5011956;28;20486;-58
2020/12/09 11:31:20;;;;;;;2.13;0.70;;;;;;;;;;5011817;28;20030;-59
2020/12/09 11:33:47;;;;;;;16.30;6.82;;;;;;;;;;5011848;28;20026;-59
2020/12/09 11:36:13;;;;;;;8.40;4.22;;;;;;;;;;5011539;28;20030;-59
2020/12/09 11:38:39;;;;;;;8.40;4.75;;;;;;;;;;5011507;28;20040;-59
2020/12/09 11:41:06;;;;;;;19.90;11.07;;;;;;;;;;5012176;28;20463;-58
2020/12/09 11:43:32;;;;;;;13.02;5.53;;;;;;;;;;5011484;28;20562;-58
2020/12/09 11:45:58;;;;;;;1.88;1.05;;;;;;;;;;5011499;28;20479;-59
2020/12/09 11:48:25;;;;;;;2.75;1.00;;;;;;;;;;5011385;28;20037;-59
2020/12/09 11:50:51;;;;;;;1.30;0.70;;;;;;;;;;5012036;28;20030;-58
2020/12/09 11:53:17;;;;;;;1.80;1.25;;;;;;;;;;5011495;28;20077;-59
2020/12/09 11:55:43;;;;;;;1.27;0.65;;;;;;;;;;5010736;28;20041;-59
2020/12/09 11:58:09;;;;;;;3.35;1.00;;;;;;;;;;5011418;28;20018;-59
2020/12/09 12:00:36;;;;;;;1.85;0.80;;;;;;;;;;5011478;28;20053;-59
2020/12/09 12:03:02;;;;;;;1.20;0.70;;;;;;;;;;5011378;28;20057;-59
2020/12/09 12:05:31;;;;;;;4.47;1.35;;;;;;;;;;5011698;28;20036;-59
2020/12/09 12:07:57;;;;;;;2.67;1.30;;;;;;;;;;5011256;28;20036;-59
2020/12/09 12:10:23;;;;;;;2.95;1.58;;;;;;;;;;5011479;28;20026;-59
2020/12/09 12:12:49;;;;;;;2.17;1.35;;;;;;;;;;5009464;28;20072;-60
2020/12/09 12:15:16;;;;;;;6.15;1.60;;;;;;;;;;5011122;28;20046;-59
2020/12/09 12:17:42;;;;;;;2.25;1.30;;;;;;;;;;5011203;28;20296;-59
2020/12/09 12:20:08;;;;;;;2.53;1.40;;;;;;;;;;5011440;28;20092;-59
2020/12/09 12:22:34;;;;;;;3.30;2.17;;;;;;;;;;5010981;28;20499;-59
2020/12/09 12:25:00;;;;;;;2.35;1.40;;;;;;;;;;5011546;28;20030;-58
2020/12/09 12:27:26;;;;;;;4.80;2.40;;;;;;;;;;5010939;28;20025;-59
2020/12/09 12:29:52;;;;;;;3.00;1.70;;;;;;;;;;5009562;28;20084;-59
2020/12/09 12:32:18;;;;;;;5.53;1.65;;;;;;;;;;5011086;28;20096;-59
2020/12/09 12:34:45;;;;;;;3.42;2.13;;;;;;;;;;5011435;28;20077;-59
2020/12/09 12:37:11;;;;;;;2.78;1.73;;;;;;;;;;5011180;28;20411;-59
2020/12/09 12:39:37;;;;;;;3.75;2.30;;;;;;;;;;5011057;28;20040;-59
2020/12/09 12:42:03;;;;;;;3.80;2.10;;;;;;;;;;5011397;28;20356;-60
2020/12/09 12:44:29;;;;;;;3.88;2.15;;;;;;;;;;5011016;28;20034;-59
2020/12/09 12:46:55;;;;;;;2.55;1.48;;;;;;;;;;5010917;28;20052;-59
2020/12/09 12:49:21;;;;;;;2.92;1.65;;;;;;;;;;4993315;28;20041;-59
2020/12/09 12:51:51;;;;;;;3.33;1.88;;;;;;;;;;5011061;28;20045;-59
2020/12/09 12:54:17;;;;;;;2.85;1.55;;;;;;;;;;5010624;28;20038;-59
2020/12/09 12:56:43;;;;;;;2.47;1.52;;;;;;;;;;5010763;28;20061;-59
2020/12/09 12:59:09;;;;;;;3.58;1.83;;;;;;;;;;5010584;28;20045;-59
2020/12/09 13:01:36;;;;;;;4.13;2.30;;;;;;;;;;5011102;28;20026;-59
2020/12/09 13:04:03;;;;;;;4.22;1.80;;;;;;;;;;5010849;28;20364;-59
2020/12/09 13:06:29;;;;;;;2.50;1.60;;;;;;;;;;5010700;28;20041;-59
2020/12/09 13:08:55;;;;;;;2.28;1.00;;;;;;;;;;5013735;28;20026;-59
2020/12/09 13:11:21;;;;;;;2.53;1.63;;;;;;;;;;5014463;28;20034;-59
2020/12/09 13:13:47;;;;;;;3.05;0.93;;;;;;;;;;5013982;28;20037;-59
2020/12/09 13:16:13;;;;;;;3.55;1.30;;;;;;;;;;5014342;28;20045;-59
2020/12/09 13:18:39;;;;;;;3.40;1.65;;;;;;;;;;5034081;28;20053;-59
2020/12/09 13:21:07;;;;;;;1.48;0.80;;;;;;;;;;5038633;28;20471;-59
2020/12/09 13:23:33;;;;;;;3.95;1.73;;;;;;;;;;5033387;28;20386;-59
2020/12/09 13:25:59;;;;;;;2.10;1.10;;;;;;;;;;5033915;28;20478;-59
2020/12/09 13:28:25;;;;;;;3.03;1.17;;;;;;;;;;5033653;28;20029;-59
2020/12/09 13:30:51;;;;;;;1.20;0.63;;;;;;;;;;5033958;28;20048;-58
2020/12/09 13:33:18;;;;;;;2.90;1.60;;;;;;;;;;5033620;28;20030;-59
2020/12/09 13:35:44;;;;;;;1.80;0.95;;;;;;;;;;5016076;28;20402;-59
2020/12/09 13:38:11;;;;;;;3.22;1.50;;;;;;;;;;5033273;28;20035;-59
2020/12/09 13:40:37;;;;;;;3.10;1.17;;;;;;;;;;5033815;28;20044;-59
2020/12/09 13:43:04;;;;;;;3.30;1.30;;;;;;;;;;5033715;28;20022;-59
2020/12/09 13:45:30;;;;;;;4.28;1.48;;;;;;;;;;5033334;28;20026;-59
2020/12/09 13:47:56;;;;;;;6.15;1.90;;;;;;;;;;5033309;28;20574;-59
2020/12/09 13:50:22;;;;;;;5.18;3.00;;;;;;;;;;5033222;28;20064;-59
2020/12/09 13:52:49;;;;;;;4.45;2.55;;;;;;;;;;5033148;28;20033;-60
2020/12/09 13:55:15;;;;;;;2.70;1.80;;;;;;;;;;5033229;28;20053;-59
2020/12/09 13:57:41;;;;;;;2.88;1.67;;;;;;;;;;5015701;28;20045;-59
2020/12/09 14:00:07;;;;;;;4.13;2.20;;;;;;;;;;5033296;28;20462;-59
2020/12/09 14:02:34;;;;;;;3.42;2.45;;;;;;;;;;5032602;28;20072;-59
2020/12/09 14:05:00;;;;;;;8.18;4.75;;;;;;;;;;5033163;28;20029;-59
2020/12/09 14:07:26;;;;;;;4.68;2.50;;;;;;;;;;5033181;28;20067;-59